sensor_id;sensor_type;location;lat;lon;timestamp;temperature;humidity
21612;DHT22;47005;52.292;13.452;2022-08-04T00:01:02;22.30;92.30
21612;DHT22;47005;52.292;13.452;2022-08-04T00:09:49;22.20;92.30
21612;DHT22;47005;52.292;13.452;2022-08-04T00:12:16;22.20;92.40
21612;DHT22;47005;52.292;13.452;2022-08-04T00:14:49;22.20;92.40
21612;DHT22;47005;52.292;13.452;2022-08-04T00:17:19;22.10;92.30
21612;DHT22;47005;52.292;13.452;2022-08-04T00:19:48;22.10;92.30
21612;DHT22;47005;52.292;13.452;2022-08-04T00:22:17;22.10;92.40
21612;DHT22;47005;52.292;13.452;2022-08-04T00:24:44;22.10;92.40
21612;DHT22;47005;52.292;13.452;2022-08-04T00:27:10;22.10;92.40
21612;DHT22;47005;52.292;13.452;2022-08-04T00:29:37;22.00;92.40
21612;DHT22;47005;52.292;13.452;2022-08-04T00:32:06;22.00;92.40
21612;DHT22;47005;52.292;13.452;2022-08-04T00:34:33;22.00;92.40
21612;DHT22;47005;52.292;13.452;2022-08-04T00:36:59;22.00;92.40
21612;DHT22;47005;52.292;13.452;2022-08-04T00:39:25;21.90;92.40
21612;DHT22;47005;52.292;13.452;2022-08-04T00:50:11;21.90;92.80
21612;DHT22;47005;52.292;13.452;2022-08-04T00:53:04;21.80;92.30
21612;DHT22;47005;52.292;13.452;2022-08-04T01:04:48;21.80;92.40
21612;DHT22;47005;52.292;13.452;2022-08-04T01:10:17;21.70;92.40
21612;DHT22;47005;52.292;13.452;2022-08-04T01:15:52;21.70;92.30
21612;DHT22;47005;52.292;13.452;2022-08-04T01:18:34;21.70;92.20
21612;DHT22;47005;52.292;13.452;2022-08-04T01:23:55;21.60;92.10
21612;DHT22;47005;52.292;13.452;2022-08-04T01:29:08;21.60;92.10
21612;DHT22;47005;52.292;13.452;2022-08-04T01:31:38;21.60;92.10
21612;DHT22;47005;52.292;13.452;2022-08-04T01:34:10;21.50;92.10
21612;DHT22;47005;52.292;13.452;2022-08-04T01:36:45;21.50;92.20
21612;DHT22;47005;52.292;13.452;2022-08-04T01:39:14;21.50;92.20
21612;DHT22;47005;52.292;13.452;2022-08-04T01:42:01;21.50;92.20
21612;DHT22;47005;52.292;13.452;2022-08-04T01:44:29;21.50;92.30
21612;DHT22;47005;52.292;13.452;2022-08-04T01:46:56;21.40;92.30
21612;DHT22;47005;52.292;13.452;2022-08-04T01:49:27;21.40;92.30
21612;DHT22;47005;52.292;13.452;2022-08-04T01:51:55;21.40;92.30
21612;DHT22;47005;52.292;13.452;2022-08-04T01:54:22;21.40;92.30
21612;DHT22;47005;52.292;13.452;2022-08-04T01:56:49;21.40;92.30
21612;DHT22;47005;52.292;13.452;2022-08-04T01:59:17;21.40;92.30
21612;DHT22;47005;52.292;13.452;2022-08-04T02:01:43;21.30;92.30
21612;DHT22;47005;52.292;13.452;2022-08-04T02:04:18;21.30;92.40
21612;DHT22;47005;52.292;13.452;2022-08-04T02:07:06;21.30;92.40
21612;DHT22;47005;52.292;13.452;2022-08-04T02:18:15;21.20;92.70
21612;DHT22;47005;52.292;13.452;2022-08-04T02:20:45;21.10;93.10
21612;DHT22;47005;52.292;13.452;2022-08-04T02:23:28;21.10;92.80
21612;DHT22;47005;52.292;13.452;2022-08-04T02:26:05;21.10;92.90
21612;DHT22;47005;52.292;13.452;2022-08-04T02:29:07;21.10;93.00
21612;DHT22;47005;52.292;13.452;2022-08-04T02:31:51;21.00;93.00
21612;DHT22;47005;52.292;13.452;2022-08-04T02:36:54;21.00;93.40
21612;DHT22;47005;52.292;13.452;2022-08-04T02:39:21;21.00;93.40
21612;DHT22;47005;52.292;13.452;2022-08-04T02:41:48;21.00;93.30
21612;DHT22;47005;52.292;13.452;2022-08-04T02:44:21;20.90;93.30
21612;DHT22;47005;52.292;13.452;2022-08-04T02:46:51;20.90;93.20
21612;DHT22;47005;52.292;13.452;2022-08-04T02:49:17;20.90;93.20
21612;DHT22;47005;52.292;13.452;2022-08-04T02:51:50;20.90;93.30
21612;DHT22;47005;52.292;13.452;2022-08-04T02:54:18;20.80;93.30
21612;DHT22;47005;52.292;13.452;2022-08-04T02:56:45;20.80;93.40
21612;DHT22;47005;52.292;13.452;2022-08-04T02:59:12;20.80;93.50
21612;DHT22;47005;52.292;13.452;2022-08-04T03:01:39;20.80;93.40
21612;DHT22;47005;52.292;13.452;2022-08-04T03:34:51;20.50;93.80
21612;DHT22;47005;52.292;13.452;2022-08-04T04:00:02;20.40;94.10
21612;DHT22;47005;52.292;13.452;2022-08-04T04:02:51;20.30;94.10
21612;DHT22;47005;52.292;13.452;2022-08-04T04:33:43;20.20;94.60
21612;DHT22;47005;52.292;13.452;2022-08-04T04:36:26;20.10;94.50
21612;DHT22;47005;52.292;13.452;2022-08-04T04:53:11;20.20;94.60
21612;DHT22;47005;52.292;13.452;2022-08-04T04:55:44;20.20;94.70
21612;DHT22;47005;52.292;13.452;2022-08-04T04:58:16;20.30;94.80
21612;DHT22;47005;52.292;13.452;2022-08-04T05:09:58;20.30;94.60
21612;DHT22;47005;52.292;13.452;2022-08-04T05:15:11;20.30;94.60
21612;DHT22;47005;52.292;13.452;2022-08-04T05:17:42;20.30;94.60
21612;DHT22;47005;52.292;13.452;2022-08-04T05:20:15;20.40;94.70
21612;DHT22;47005;52.292;13.452;2022-08-04T05:28:12;20.40;94.70
21612;DHT22;47005;52.292;13.452;2022-08-04T05:30:41;20.40;94.70
21612;DHT22;47005;52.292;13.452;2022-08-04T05:33:21;20.40;94.70
21612;DHT22;47005;52.292;13.452;2022-08-04T05:35:55;20.50;94.70
21612;DHT22;47005;52.292;13.452;2022-08-04T05:38:26;20.50;94.70
21612;DHT22;47005;52.292;13.452;2022-08-04T05:40:53;20.50;94.80
21612;DHT22;47005;52.292;13.452;2022-08-04T05:43:20;20.50;94.70
21612;DHT22;47005;52.292;13.452;2022-08-04T05:45:47;20.50;94.70
21612;DHT22;47005;52.292;13.452;2022-08-04T05:48:13;20.60;94.70
21612;DHT22;47005;52.292;13.452;2022-08-04T05:50:39;20.60;94.70
21612;DHT22;47005;52.292;13.452;2022-08-04T05:53:08;20.70;94.70
21612;DHT22;47005;52.292;13.452;2022-08-04T05:55:34;20.70;94.80
21612;DHT22;47005;52.292;13.452;2022-08-04T05:58:00;20.70;94.70
21612;DHT22;47005;52.292;13.452;2022-08-04T06:00:27;20.80;94.70
21612;DHT22;47005;52.292;13.452;2022-08-04T06:02:53;20.80;94.70
21612;DHT22;47005;52.292;13.452;2022-08-04T06:05:21;20.80;94.80
21612;DHT22;47005;52.292;13.452;2022-08-04T06:07:47;20.80;94.70
21612;DHT22;47005;52.292;13.452;2022-08-04T06:10:13;20.80;94.70
21612;DHT22;47005;52.292;13.452;2022-08-04T06:12:54;20.90;95.10
21612;DHT22;47005;52.292;13.452;2022-08-04T06:15:21;21.00;94.80
21612;DHT22;47005;52.292;13.452;2022-08-04T06:17:52;21.00;94.70
21612;DHT22;47005;52.292;13.452;2022-08-04T06:20:20;21.00;95.10
21612;DHT22;47005;52.292;13.452;2022-08-04T06:22:52;21.10;94.80
21612;DHT22;47005;52.292;13.452;2022-08-04T06:25:24;21.10;94.80
21612;DHT22;47005;52.292;13.452;2022-08-04T06:27:51;21.10;94.80
21612;DHT22;47005;52.292;13.452;2022-08-04T06:30:18;21.20;94.80
21612;DHT22;47005;52.292;13.452;2022-08-04T06:32:45;21.20;95.10
21612;DHT22;47005;52.292;13.452;2022-08-04T06:35:15;21.30;95.10
21612;DHT22;47005;52.292;13.452;2022-08-04T06:37:42;21.30;95.00
21612;DHT22;47005;52.292;13.452;2022-08-04T06:40:09;21.30;95.20
21612;DHT22;47005;52.292;13.452;2022-08-04T06:42:36;21.40;95.30
21612;DHT22;47005;52.292;13.452;2022-08-04T06:45:02;21.40;95.10
21612;DHT22;47005;52.292;13.452;2022-08-04T06:47:30;21.50;95.20
21612;DHT22;47005;52.292;13.452;2022-08-04T06:49:56;21.50;95.40
21612;DHT22;47005;52.292;13.452;2022-08-04T06:52:23;21.60;95.30
21612;DHT22;47005;52.292;13.452;2022-08-04T06:54:52;21.60;95.30
21612;DHT22;47005;52.292;13.452;2022-08-04T06:57:21;21.60;95.30
21612;DHT22;47005;52.292;13.452;2022-08-04T06:59:50;21.70;95.30
21612;DHT22;47005;52.292;13.452;2022-08-04T07:02:20;21.80;95.40
21612;DHT22;47005;52.292;13.452;2022-08-04T07:04:48;21.80;95.50
21612;DHT22;47005;52.292;13.452;2022-08-04T07:07:14;21.80;95.60
21612;DHT22;47005;52.292;13.452;2022-08-04T07:09:41;21.90;95.60
21612;DHT22;47005;52.292;13.452;2022-08-04T07:12:07;21.90;95.60
21612;DHT22;47005;52.292;13.452;2022-08-04T07:14:34;22.00;95.50
21612;DHT22;47005;52.292;13.452;2022-08-04T07:17:03;22.00;95.30
21612;DHT22;47005;52.292;13.452;2022-08-04T07:19:30;22.10;95.40
21612;DHT22;47005;52.292;13.452;2022-08-04T07:22:01;22.10;95.30
21612;DHT22;47005;52.292;13.452;2022-08-04T07:24:34;22.20;95.30
21612;DHT22;47005;52.292;13.452;2022-08-04T07:27:01;22.30;95.30
21612;DHT22;47005;52.292;13.452;2022-08-04T07:29:27;22.30;95.10
21612;DHT22;47005;52.292;13.452;2022-08-04T07:31:54;22.40;95.20
21612;DHT22;47005;52.292;13.452;2022-08-04T07:34:21;22.40;95.20
21612;DHT22;47005;52.292;13.452;2022-08-04T07:36:53;22.50;95.10
21612;DHT22;47005;52.292;13.452;2022-08-04T07:39:19;22.50;95.30
21612;DHT22;47005;52.292;13.452;2022-08-04T07:41:46;22.60;95.10
21612;DHT22;47005;52.292;13.452;2022-08-04T07:44:13;22.60;95.00
21612;DHT22;47005;52.292;13.452;2022-08-04T07:46:39;22.70;94.90
21612;DHT22;47005;52.292;13.452;2022-08-04T07:49:06;22.70;94.60
21612;DHT22;47005;52.292;13.452;2022-08-04T07:51:33;22.80;94.20
21612;DHT22;47005;52.292;13.452;2022-08-04T07:54:00;22.90;93.90
21612;DHT22;47005;52.292;13.452;2022-08-04T07:56:28;22.90;93.90
21612;DHT22;47005;52.292;13.452;2022-08-04T07:58:55;23.00;93.50
21612;DHT22;47005;52.292;13.452;2022-08-04T08:01:21;23.00;92.60
21612;DHT22;47005;52.292;13.452;2022-08-04T08:03:47;23.10;92.80
21612;DHT22;47005;52.292;13.452;2022-08-04T08:06:13;23.20;92.90
21612;DHT22;47005;52.292;13.452;2022-08-04T08:08:39;23.20;92.50
21612;DHT22;47005;52.292;13.452;2022-08-04T08:11:06;23.30;91.70
21612;DHT22;47005;52.292;13.452;2022-08-04T08:13:32;23.40;92.40
21612;DHT22;47005;52.292;13.452;2022-08-04T08:15:58;23.40;92.40
21612;DHT22;47005;52.292;13.452;2022-08-04T08:18:24;23.50;92.50
21612;DHT22;47005;52.292;13.452;2022-08-04T08:20:50;23.50;92.10
21612;DHT22;47005;52.292;13.452;2022-08-04T08:23:17;23.60;92.10
21612;DHT22;47005;52.292;13.452;2022-08-04T08:25:43;23.70;92.50
21612;DHT22;47005;52.292;13.452;2022-08-04T08:28:09;23.70;92.30
21612;DHT22;47005;52.292;13.452;2022-08-04T08:30:36;23.80;92.50
21612;DHT22;47005;52.292;13.452;2022-08-04T08:33:07;23.80;92.00
21612;DHT22;47005;52.292;13.452;2022-08-04T08:49:53;24.20;91.80
21612;DHT22;47005;52.292;13.452;2022-08-04T09:01:30;24.40;90.80
21612;DHT22;47005;52.292;13.452;2022-08-04T09:11:55;24.70;91.00
21612;DHT22;47005;52.292;13.452;2022-08-04T09:14:28;24.70;90.60
21612;DHT22;47005;52.292;13.452;2022-08-04T09:17:05;24.80;89.50
21612;DHT22;47005;52.292;13.452;2022-08-04T09:19:37;24.80;88.70
21612;DHT22;47005;52.292;13.452;2022-08-04T09:22:08;24.80;87.10
21612;DHT22;47005;52.292;13.452;2022-08-04T09:27:04;25.00;87.60
21612;DHT22;47005;52.292;13.452;2022-08-04T09:29:42;25.00;87.00
21612;DHT22;47005;52.292;13.452;2022-08-04T09:37:56;25.20;84.80
21612;DHT22;47005;52.292;13.452;2022-08-04T09:40:33;25.30;85.90
21612;DHT22;47005;52.292;13.452;2022-08-04T09:46:14;25.40;87.00
21612;DHT22;47005;52.292;13.452;2022-08-04T09:54:16;25.60;83.10
21612;DHT22;47005;52.292;13.452;2022-08-04T09:59:54;25.70;83.10
21612;DHT22;47005;52.292;13.452;2022-08-04T10:02:23;25.80;84.00
21612;DHT22;47005;52.292;13.452;2022-08-04T10:04:52;25.80;84.30
21612;DHT22;47005;52.292;13.452;2022-08-04T10:07:50;25.80;79.60
21612;DHT22;47005;52.292;13.452;2022-08-04T10:32:18;26.30;80.10
21612;DHT22;47005;52.292;13.452;2022-08-04T10:37:20;26.40;80.50
21612;DHT22;47005;52.292;13.452;2022-08-04T10:39:55;26.50;79.60
21612;DHT22;47005;52.292;13.452;2022-08-04T10:42:52;26.50;79.40
21612;DHT22;47005;52.292;13.452;2022-08-04T10:45:26;26.60;78.40
21612;DHT22;47005;52.292;13.452;2022-08-04T10:48:28;26.60;78.40
21612;DHT22;47005;52.292;13.452;2022-08-04T10:51:01;26.60;80.50
21612;DHT22;47005;52.292;13.452;2022-08-04T10:53:30;26.70;78.40
21612;DHT22;47005;52.292;13.452;2022-08-04T10:56:08;26.70;77.70
21612;DHT22;47005;52.292;13.452;2022-08-04T10:58:43;26.80;77.20
21612;DHT22;47005;52.292;13.452;2022-08-04T11:01:15;26.80;76.20
21612;DHT22;47005;52.292;13.452;2022-08-04T11:03:48;26.90;78.20
21612;DHT22;47005;52.292;13.452;2022-08-04T11:06:17;27.00;78.60
21612;DHT22;47005;52.292;13.452;2022-08-04T11:08:52;27.00;77.80
21612;DHT22;47005;52.292;13.452;2022-08-04T11:14:11;27.10;78.50
21612;DHT22;47005;52.292;13.452;2022-08-04T11:19:14;27.10;75.90
21612;DHT22;47005;52.292;13.452;2022-08-04T11:22:01;27.10;76.80
21612;DHT22;47005;52.292;13.452;2022-08-04T11:24:49;27.20;76.20
21612;DHT22;47005;52.292;13.452;2022-08-04T11:27:27;27.20;76.90
21612;DHT22;47005;52.292;13.452;2022-08-04T11:30:07;27.20;78.90
21612;DHT22;47005;52.292;13.452;2022-08-04T11:33:11;27.20;79.10
21612;DHT22;47005;52.292;13.452;2022-08-04T11:35:51;27.30;76.40
21612;DHT22;47005;52.292;13.452;2022-08-04T11:44:03;27.40;75.90
21612;DHT22;47005;52.292;13.452;2022-08-04T11:46:39;27.40;75.00
21612;DHT22;47005;52.292;13.452;2022-08-04T11:49:09;27.50;73.80
21612;DHT22;47005;52.292;13.452;2022-08-04T11:51:36;27.50;73.90
21612;DHT22;47005;52.292;13.452;2022-08-04T11:54:03;27.50;72.20
21612;DHT22;47005;52.292;13.452;2022-08-04T11:56:30;27.60;72.30
21612;DHT22;47005;52.292;13.452;2022-08-04T11:58:57;27.60;70.80
21612;DHT22;47005;52.292;13.452;2022-08-04T12:04:17;27.70;71.30
21612;DHT22;47005;52.292;13.452;2022-08-04T12:06:55;27.70;72.20
21612;DHT22;47005;52.292;13.452;2022-08-04T12:14:57;27.90;70.20
21612;DHT22;47005;52.292;13.452;2022-08-04T12:17:33;27.90;69.50
21612;DHT22;47005;52.292;13.452;2022-08-04T12:20:04;28.00;68.40
21612;DHT22;47005;52.292;13.452;2022-08-04T12:22:36;28.00;67.30
21612;DHT22;47005;52.292;13.452;2022-08-04T12:27:36;28.10;63.50
21612;DHT22;47005;52.292;13.452;2022-08-04T12:30:04;28.20;65.10
21612;DHT22;47005;52.292;13.452;2022-08-04T12:32:40;28.30;66.60
21612;DHT22;47005;52.292;13.452;2022-08-04T12:35:26;28.30;66.80
21612;DHT22;47005;52.292;13.452;2022-08-04T12:38:14;28.40;66.30
21612;DHT22;47005;52.292;13.452;2022-08-04T12:40:54;28.40;66.40
21612;DHT22;47005;52.292;13.452;2022-08-04T12:43:38;28.50;67.30
21612;DHT22;47005;52.292;13.452;2022-08-04T12:46:12;28.50;67.60
21612;DHT22;47005;52.292;13.452;2022-08-04T12:48:45;28.60;69.40
21612;DHT22;47005;52.292;13.452;2022-08-04T12:51:11;28.60;65.00
21612;DHT22;47005;52.292;13.452;2022-08-04T12:53:42;28.60;64.50
21612;DHT22;47005;52.292;13.452;2022-08-04T12:56:12;28.60;66.30
21612;DHT22;47005;52.292;13.452;2022-08-04T12:58:43;28.60;66.40
21612;DHT22;47005;52.292;13.452;2022-08-04T13:01:16;28.60;64.50
21612;DHT22;47005;52.292;13.452;2022-08-04T13:03:44;28.60;65.10
21612;DHT22;47005;52.292;13.452;2022-08-04T13:06:13;28.60;65.20
21612;DHT22;47005;52.292;13.452;2022-08-04T13:08:41;28.70;65.70
21612;DHT22;47005;52.292;13.452;2022-08-04T13:11:09;28.70;66.00
21612;DHT22;47005;52.292;13.452;2022-08-04T13:13:37;28.70;67.50
21612;DHT22;47005;52.292;13.452;2022-08-04T13:16:08;28.70;68.30
21612;DHT22;47005;52.292;13.452;2022-08-04T13:18:37;28.80;69.30
21612;DHT22;47005;52.292;13.452;2022-08-04T13:21:18;28.80;68.20
21612;DHT22;47005;52.292;13.452;2022-08-04T13:23:51;28.80;69.00
21612;DHT22;47005;52.292;13.452;2022-08-04T13:26:18;28.90;69.40
21612;DHT22;47005;52.292;13.452;2022-08-04T13:28:46;28.90;68.20
21612;DHT22;47005;52.292;13.452;2022-08-04T13:31:18;29.00;66.50
21612;DHT22;47005;52.292;13.452;2022-08-04T13:33:47;29.10;67.90
21612;DHT22;47005;52.292;13.452;2022-08-04T13:36:15;29.30;65.20
21612;DHT22;47005;52.292;13.452;2022-08-04T13:39:07;29.50;58.30
21612;DHT22;47005;52.292;13.452;2022-08-04T13:41:35;29.60;60.70
21612;DHT22;47005;52.292;13.452;2022-08-04T13:44:04;29.80;60.30
21612;DHT22;47005;52.292;13.452;2022-08-04T13:46:40;29.80;59.20
21612;DHT22;47005;52.292;13.452;2022-08-04T13:49:11;29.90;58.60
21612;DHT22;47005;52.292;13.452;2022-08-04T13:51:39;29.90;57.40
21612;DHT22;47005;52.292;13.452;2022-08-04T13:54:06;30.00;58.90
21612;DHT22;47005;52.292;13.452;2022-08-04T13:56:38;30.00;58.00
21612;DHT22;47005;52.292;13.452;2022-08-04T13:59:10;30.00;58.90
21612;DHT22;47005;52.292;13.452;2022-08-04T14:01:39;30.10;59.20
21612;DHT22;47005;52.292;13.452;2022-08-04T14:04:14;30.10;59.30
21612;DHT22;47005;52.292;13.452;2022-08-04T14:07:09;30.10;58.70
21612;DHT22;47005;52.292;13.452;2022-08-04T14:09:38;30.00;56.40
21612;DHT22;47005;52.292;13.452;2022-08-04T14:12:07;30.10;59.20
21612;DHT22;47005;52.292;13.452;2022-08-04T14:14:35;30.10;57.00
21612;DHT22;47005;52.292;13.452;2022-08-04T14:17:06;30.00;56.90
21612;DHT22;47005;52.292;13.452;2022-08-04T14:19:49;30.00;58.30
21612;DHT22;47005;52.292;13.452;2022-08-04T14:27:22;30.00;57.10
21612;DHT22;47005;52.292;13.452;2022-08-04T14:29:47;30.10;58.10
21612;DHT22;47005;52.292;13.452;2022-08-04T14:32:13;30.10;58.50
21612;DHT22;47005;52.292;13.452;2022-08-04T14:34:41;30.00;57.60
21612;DHT22;47005;52.292;13.452;2022-08-04T14:37:09;30.00;57.80
21612;DHT22;47005;52.292;13.452;2022-08-04T14:39:39;30.00;57.20
21612;DHT22;47005;52.292;13.452;2022-08-04T14:42:06;30.00;58.10
21612;DHT22;47005;52.292;13.452;2022-08-04T14:44:51;30.00;58.00
21612;DHT22;47005;52.292;13.452;2022-08-04T14:47:18;30.10;58.30
21612;DHT22;47005;52.292;13.452;2022-08-04T14:49:54;30.10;59.10
21612;DHT22;47005;52.292;13.452;2022-08-04T14:52:24;30.20;58.90
21612;DHT22;47005;52.292;13.452;2022-08-04T14:54:50;30.20;57.90
21612;DHT22;47005;52.292;13.452;2022-08-04T14:57:16;30.30;55.80
21612;DHT22;47005;52.292;13.452;2022-08-04T14:59:47;30.30;56.00
21612;DHT22;47005;52.292;13.452;2022-08-04T15:02:14;30.30;58.00
21612;DHT22;47005;52.292;13.452;2022-08-04T15:04:41;30.30;56.20
21612;DHT22;47005;52.292;13.452;2022-08-04T15:07:08;30.40;57.00
21612;DHT22;47005;52.292;13.452;2022-08-04T15:09:34;30.40;57.20
21612;DHT22;47005;52.292;13.452;2022-08-04T15:12:02;30.40;57.00
21612;DHT22;47005;52.292;13.452;2022-08-04T15:14:29;30.40;56.90
21612;DHT22;47005;52.292;13.452;2022-08-04T15:16:54;30.40;57.30
21612;DHT22;47005;52.292;13.452;2022-08-04T15:19:20;30.40;57.20
21612;DHT22;47005;52.292;13.452;2022-08-04T15:21:47;30.30;56.10
21612;DHT22;47005;52.292;13.452;2022-08-04T15:24:13;30.30;56.90
21612;DHT22;47005;52.292;13.452;2022-08-04T15:26:46;30.30;58.30
21612;DHT22;47005;52.292;13.452;2022-08-04T15:29:19;30.40;58.30
21612;DHT22;47005;52.292;13.452;2022-08-04T15:31:47;30.30;57.90
21612;DHT22;47005;52.292;13.452;2022-08-04T15:34:13;30.30;58.20
21612;DHT22;47005;52.292;13.452;2022-08-04T15:36:55;30.30;58.10
21612;DHT22;47005;52.292;13.452;2022-08-04T15:39:36;30.30;56.90
21612;DHT22;47005;52.292;13.452;2022-08-04T15:42:22;30.30;57.80
21612;DHT22;47005;52.292;13.452;2022-08-04T15:47:39;30.30;57.10
21612;DHT22;47005;52.292;13.452;2022-08-04T15:50:10;30.30;54.50
21612;DHT22;47005;52.292;13.452;2022-08-04T16:00:28;30.30;54.70
21612;DHT22;47005;52.292;13.452;2022-08-04T16:16:43;30.30;56.10
21612;DHT22;47005;52.292;13.452;2022-08-04T16:21:59;30.30;56.70
21612;DHT22;47005;52.292;13.452;2022-08-04T16:24:40;30.20;57.60
21612;DHT22;47005;52.292;13.452;2022-08-04T16:27:10;30.20;58.30
21612;DHT22;47005;52.292;13.452;2022-08-04T16:29:37;30.20;56.80
21612;DHT22;47005;52.292;13.452;2022-08-04T16:37:08;30.10;57.10
21612;DHT22;47005;52.292;13.452;2022-08-04T16:39:35;30.10;57.80
21612;DHT22;47005;52.292;13.452;2022-08-04T16:48:02;30.10;59.10
21612;DHT22;47005;52.292;13.452;2022-08-04T16:50:32;30.10;60.00
21612;DHT22;47005;52.292;13.452;2022-08-04T16:52:58;30.00;59.70
21612;DHT22;47005;52.292;13.452;2022-08-04T16:55:26;30.00;58.70
21612;DHT22;47005;52.292;13.452;2022-08-04T16:57:56;30.00;59.50
21612;DHT22;47005;52.292;13.452;2022-08-04T17:00:35;30.00;59.20
21612;DHT22;47005;52.292;13.452;2022-08-04T17:03:07;30.00;58.80
21612;DHT22;47005;52.292;13.452;2022-08-04T17:05:33;30.00;58.90
21612;DHT22;47005;52.292;13.452;2022-08-04T17:08:00;29.90;59.20
21612;DHT22;47005;52.292;13.452;2022-08-04T17:10:45;30.00;59.90
21612;DHT22;47005;52.292;13.452;2022-08-04T17:13:31;30.00;60.70
21612;DHT22;47005;52.292;13.452;2022-08-04T17:16:08;30.00;61.40
21612;DHT22;47005;52.292;13.452;2022-08-04T17:18:37;30.10;61.60
21612;DHT22;47005;52.292;13.452;2022-08-04T17:21:10;30.20;62.00
21612;DHT22;47005;52.292;13.452;2022-08-04T17:23:38;30.30;62.10
21612;DHT22;47005;52.292;13.452;2022-08-04T17:26:11;30.30;62.00
21612;DHT22;47005;52.292;13.452;2022-08-04T17:28:38;30.40;62.00
21612;DHT22;47005;52.292;13.452;2022-08-04T17:31:06;30.40;62.00
21612;DHT22;47005;52.292;13.452;2022-08-04T17:33:32;30.30;62.20
21612;DHT22;47005;52.292;13.452;2022-08-04T17:36:00;30.30;62.50
21612;DHT22;47005;52.292;13.452;2022-08-04T17:38:31;30.20;62.70
21612;DHT22;47005;52.292;13.452;2022-08-04T17:41:00;30.20;63.00
21612;DHT22;47005;52.292;13.452;2022-08-04T17:43:53;30.10;63.00
21612;DHT22;47005;52.292;13.452;2022-08-04T17:56:54;29.70;63.80
21612;DHT22;47005;52.292;13.452;2022-08-04T17:59:22;29.60;63.90
21612;DHT22;47005;52.292;13.452;2022-08-04T18:01:55;29.60;64.10
21612;DHT22;47005;52.292;13.452;2022-08-04T18:12:30;29.30;64.70
21612;DHT22;47005;52.292;13.452;2022-08-04T18:20:07;29.10;65.00
21612;DHT22;47005;52.292;13.452;2022-08-04T18:22:37;29.00;65.20
21612;DHT22;47005;52.292;13.452;2022-08-04T18:25:07;29.00;65.60
21612;DHT22;47005;52.292;13.452;2022-08-04T18:27:32;28.90;66.00
21612;DHT22;47005;52.292;13.452;2022-08-04T18:29:58;28.80;66.50
21612;DHT22;47005;52.292;13.452;2022-08-04T18:32:24;28.80;67.90
21612;DHT22;47005;52.292;13.452;2022-08-04T18:34:51;28.70;68.20
21612;DHT22;47005;52.292;13.452;2022-08-04T18:37:18;28.70;70.60
21612;DHT22;47005;52.292;13.452;2022-08-04T18:39:44;28.60;71.50
21612;DHT22;47005;52.292;13.452;2022-08-04T18:42:10;28.60;72.90
21612;DHT22;47005;52.292;13.452;2022-08-04T18:44:37;28.50;71.60
21612;DHT22;47005;52.292;13.452;2022-08-04T18:47:03;28.40;72.30
21612;DHT22;47005;52.292;13.452;2022-08-04T18:49:29;28.40;72.30
21612;DHT22;47005;52.292;13.452;2022-08-04T18:51:55;28.30;73.90
21612;DHT22;47005;52.292;13.452;2022-08-04T18:54:22;28.30;75.10
21612;DHT22;47005;52.292;13.452;2022-08-04T18:56:52;28.20;75.10
21612;DHT22;47005;52.292;13.452;2022-08-04T18:59:19;28.10;75.50
21612;DHT22;47005;52.292;13.452;2022-08-04T19:01:45;28.00;75.80
21612;DHT22;47005;52.292;13.452;2022-08-04T19:04:10;28.00;76.10
21612;DHT22;47005;52.292;13.452;2022-08-04T19:06:36;27.90;76.20
21612;DHT22;47005;52.292;13.452;2022-08-04T19:09:03;27.80;76.40
21612;DHT22;47005;52.292;13.452;2022-08-04T19:11:30;27.70;76.60
21612;DHT22;47005;52.292;13.452;2022-08-04T19:13:58;27.70;77.20
21612;DHT22;47005;52.292;13.452;2022-08-04T19:16:24;27.70;77.60
21612;DHT22;47005;52.292;13.452;2022-08-04T19:18:49;27.60;77.50
21612;DHT22;47005;52.292;13.452;2022-08-04T19:21:15;27.50;78.10
21612;DHT22;47005;52.292;13.452;2022-08-04T19:23:41;27.40;78.10
21612;DHT22;47005;52.292;13.452;2022-08-04T19:26:06;27.40;78.30
21612;DHT22;47005;52.292;13.452;2022-08-04T19:28:34;27.30;78.20
21612;DHT22;47005;52.292;13.452;2022-08-04T19:31:01;27.30;78.60
21612;DHT22;47005;52.292;13.452;2022-08-04T19:33:27;27.30;78.40
21612;DHT22;47005;52.292;13.452;2022-08-04T19:35:53;27.20;77.90
21612;DHT22;47005;52.292;13.452;2022-08-04T19:38:19;27.20;78.00
21612;DHT22;47005;52.292;13.452;2022-08-04T19:40:45;27.10;78.00
21612;DHT22;47005;52.292;13.452;2022-08-04T19:43:11;27.10;79.00
21612;DHT22;47005;52.292;13.452;2022-08-04T19:45:37;27.00;78.80
21612;DHT22;47005;52.292;13.452;2022-08-04T19:48:03;27.00;78.80
21612;DHT22;47005;52.292;13.452;2022-08-04T19:50:30;26.90;79.40
21612;DHT22;47005;52.292;13.452;2022-08-04T19:52:56;26.90;79.20
21612;DHT22;47005;52.292;13.452;2022-08-04T19:55:23;26.80;79.30
21612;DHT22;47005;52.292;13.452;2022-08-04T19:57:49;26.80;79.30
21612;DHT22;47005;52.292;13.452;2022-08-04T20:00:16;26.80;79.60
21612;DHT22;47005;52.292;13.452;2022-08-04T20:02:43;26.70;79.20
21612;DHT22;47005;52.292;13.452;2022-08-04T20:05:10;26.70;79.40
21612;DHT22;47005;52.292;13.452;2022-08-04T20:07:36;26.60;79.30
21612;DHT22;47005;52.292;13.452;2022-08-04T20:10:06;26.60;79.00
21612;DHT22;47005;52.292;13.452;2022-08-04T20:12:33;26.60;78.90
21612;DHT22;47005;52.292;13.452;2022-08-04T20:14:59;26.60;78.60
21612;DHT22;47005;52.292;13.452;2022-08-04T20:17:25;26.50;78.50
21612;DHT22;47005;52.292;13.452;2022-08-04T20:19:51;26.50;78.90
21612;DHT22;47005;52.292;13.452;2022-08-04T20:22:17;26.50;78.90
21612;DHT22;47005;52.292;13.452;2022-08-04T20:24:46;26.50;78.80
21612;DHT22;47005;52.292;13.452;2022-08-04T20:27:13;26.40;78.90
21612;DHT22;47005;52.292;13.452;2022-08-04T20:29:39;26.40;78.90
21612;DHT22;47005;52.292;13.452;2022-08-04T20:32:05;26.40;78.60
21612;DHT22;47005;52.292;13.452;2022-08-04T20:34:31;26.40;78.60
21612;DHT22;47005;52.292;13.452;2022-08-04T20:36:57;26.40;78.60
21612;DHT22;47005;52.292;13.452;2022-08-04T20:39:22;26.30;78.40
21612;DHT22;47005;52.292;13.452;2022-08-04T20:41:48;26.30;78.40
21612;DHT22;47005;52.292;13.452;2022-08-04T20:44:14;26.30;78.50
21612;DHT22;47005;52.292;13.452;2022-08-04T20:46:40;26.20;78.30
21612;DHT22;47005;52.292;13.452;2022-08-04T20:49:06;26.20;78.40
21612;DHT22;47005;52.292;13.452;2022-08-04T20:51:32;26.20;78.40
21612;DHT22;47005;52.292;13.452;2022-08-04T20:53:58;26.20;78.10
21612;DHT22;47005;52.292;13.452;2022-08-04T20:56:23;26.20;77.90
21612;DHT22;47005;52.292;13.452;2022-08-04T20:58:49;26.20;77.80